Audley End, United Kingdom
Current Conditions -  °F | °C
As of 4:50 AM on Friday 28 Nov 2014 (Local Time) from EGUW Reporting Station
Haze Haze  
Wind Chill: 50°   Ceiling: 1200
Heat Index: 50°   Visibility: 5mi
Dew Point: 50°   Wind: 7mph
Humidity: 100%   Direction: 80°E
Pressure: 29.62"   Gusts: NA
Location:  52.16°N, 0.67°E
Report Text: EGUW 280450Z 08006KT 8000 BR SCT006 BKN012 10/10 Q1003 YLO1
Loading
Personal Weather Stations






























Interactive Weather Map New forecast layout! Learn more

10-Day Weather Forecast

Advertisements
Track Severe Weather on mobile